createdAt,value
2017-05-17T00:00:39.248Z,90.80
2017-05-17T00:03:07.005Z,90.90
2017-05-17T00:05:34.348Z,90.90
2017-05-17T00:08:01.314Z,90.80
2017-05-17T00:10:29.084Z,90.60
2017-05-17T00:12:57.221Z,90.50
2017-05-17T00:15:24.252Z,90.60
2017-05-17T00:17:51.281Z,90.60
2017-05-17T00:20:18.627Z,90.70
2017-05-17T00:22:45.647Z,90.90
2017-05-17T00:25:20.284Z,90.60
2017-05-17T00:27:47.294Z,90.60
2017-05-17T00:30:14.261Z,90.80
2017-05-17T00:32:41.709Z,90.90
2017-05-17T00:35:08.721Z,90.70
2017-05-17T00:37:48.375Z,90.60
2017-05-17T00:40:33.880Z,90.90
2017-05-17T00:43:19.564Z,90.80
2017-05-17T00:46:05.224Z,90.90
2017-05-17T00:48:51.249Z,90.90
2017-05-17T00:51:36.976Z,90.80
2017-05-17T00:54:10.401Z,90.90
2017-05-17T00:56:37.426Z,91.00
2017-05-17T00:59:04.433Z,90.80
2017-05-17T01:01:32.592Z,90.60
2017-05-17T01:04:00.375Z,90.60
2017-05-17T01:06:28.140Z,90.70
2017-05-17T01:08:55.764Z,90.70
2017-05-17T01:11:22.763Z,90.90
2017-05-17T01:13:50.695Z,91.10
2017-05-17T01:16:18.157Z,91.00
2017-05-17T01:18:45.163Z,90.80
2017-05-17T01:21:12.170Z,90.90
2017-05-17T01:23:39.588Z,90.60
2017-05-17T01:26:06.584Z,90.60
2017-05-17T01:28:34.345Z,90.50
2017-05-17T01:31:02.492Z,90.70
2017-05-17T01:33:30.251Z,90.50
2017-05-17T01:35:59.169Z,90.20
2017-05-17T01:38:26.579Z,90.60
2017-05-17T01:40:53.607Z,90.60
2017-05-17T01:43:20.637Z,90.70
2017-05-17T01:45:48.139Z,90.90
2017-05-17T01:48:15.183Z,90.80
2017-05-17T01:50:42.213Z,90.90
2017-05-17T01:53:09.609Z,90.80
2017-05-17T01:55:36.625Z,90.40
2017-05-17T01:58:03.707Z,90.10
2017-05-17T02:00:31.884Z,90.60
2017-05-17T02:02:58.881Z,90.40
2017-05-17T02:05:38.578Z,90.50
2017-05-17T02:08:09.721Z,90.30
2017-05-17T02:10:36.739Z,90.50
2017-05-17T02:13:04.105Z,90.70
2017-05-17T02:15:31.916Z,90.80
2017-05-17T02:17:58.897Z,90.90
2017-05-17T02:20:26.392Z,90.80
2017-05-17T02:22:53.445Z,91.10
2017-05-17T02:25:20.440Z,90.70
2017-05-17T02:27:47.845Z,90.60
2017-05-17T02:30:14.844Z,90.70
2017-05-17T02:32:41.880Z,90.90
2017-05-17T02:35:09.294Z,91.00
2017-05-17T02:37:36.313Z,90.60
2017-05-17T02:40:03.329Z,90.60
2017-05-17T02:42:30.666Z,90.70
2017-05-17T02:44:58.473Z,90.60
2017-05-17T02:47:25.496Z,90.60
2017-05-17T02:49:53.709Z,90.60
2017-05-17T02:52:20.739Z,90.60
2017-05-17T02:54:47.745Z,90.50
2017-05-17T02:57:15.151Z,90.40
2017-05-17T02:59:42.199Z,90.30
2017-05-17T03:02:09.251Z,90.10
2017-05-17T03:04:36.639Z,90.00
2017-05-17T03:07:04.391Z,90.00
2017-05-17T03:09:31.405Z,90.20
2017-05-17T03:11:58.776Z,90.20
2017-05-17T03:14:25.804Z,90.20
2017-05-17T03:16:52.832Z,90.50
2017-05-17T03:19:20.359Z,90.20
2017-05-17T03:21:47.384Z,90.30
2017-05-17T03:24:14.413Z,90.20
2017-05-17T03:26:41.753Z,90.00
2017-05-17T03:29:08.782Z,89.90
2017-05-17T03:31:35.805Z,90.00
2017-05-17T03:34:03.884Z,90.00
2017-05-17T03:36:30.948Z,90.30
2017-05-17T03:38:57.985Z,90.50
2017-05-17T03:41:25.347Z,90.30
2017-05-17T03:43:52.352Z,90.20
2017-05-17T03:46:19.387Z,90.00
2017-05-17T03:48:46.875Z,90.00
2017-05-17T03:51:14.630Z,89.80
2017-05-17T03:53:41.653Z,89.70
2017-05-17T03:56:09.020Z,90.00
2017-05-17T03:58:36.007Z,90.00
2017-05-17T04:01:03.764Z,89.90
2017-05-17T04:03:31.715Z,90.20
2017-05-17T04:05:58.712Z,90.10
2017-05-17T04:08:25.822Z,90.10
2017-05-17T04:10:53.791Z,90.20
2017-05-17T04:13:20.835Z,90.10
2017-05-17T04:15:47.832Z,90.30
2017-05-17T04:18:15.226Z,90.00
2017-05-17T04:20:42.252Z,89.70
2017-05-17T04:23:09.338Z,89.60
2017-05-17T04:25:36.805Z,89.10
2017-05-17T04:28:03.834Z,89.10
2017-05-17T04:30:30.852Z,89.40
2017-05-17T04:32:58.251Z,89.90
2017-05-17T04:35:26.043Z,90.40
2017-05-17T04:37:53.067Z,89.80
2017-05-17T04:40:21.220Z,89.60
2017-05-17T04:42:48.236Z,89.40
2017-05-17T04:45:15.265Z,89.30
2017-05-17T04:47:42.678Z,88.90
2017-05-17T04:50:09.718Z,89.00
2017-05-17T04:52:36.740Z,88.70
2017-05-17T04:55:04.116Z,89.30
2017-05-17T04:57:31.162Z,88.40
2017-05-17T04:59:58.205Z,88.40
2017-05-17T05:02:25.695Z,88.20
2017-05-17T05:04:52.793Z,89.10
2017-05-17T05:07:19.840Z,89.30
2017-05-17T05:09:47.224Z,89.20
2017-05-17T05:12:14.232Z,88.80
2017-05-17T05:14:41.232Z,86.20
2017-05-17T05:17:08.684Z,86.00
2017-05-17T05:19:36.460Z,88.60
2017-05-17T05:22:03.473Z,89.00
2017-05-17T05:24:30.853Z,88.30
2017-05-17T05:26:57.863Z,88.70
2017-05-17T05:29:24.857Z,88.40
2017-05-17T05:31:52.187Z,89.20
2017-05-17T05:34:19.181Z,89.50
2017-05-17T05:36:46.261Z,89.90
2017-05-17T05:39:13.654Z,89.60
2017-05-17T05:41:40.653Z,89.10
2017-05-17T05:44:07.652Z,88.10
2017-05-17T05:46:35.067Z,88.40
2017-05-17T05:49:02.081Z,88.00
2017-05-17T05:51:29.819Z,87.80
2017-05-17T05:53:57.175Z,87.80
2017-05-17T05:56:24.975Z,87.20
2017-05-17T05:58:52.009Z,87.40
2017-05-17T06:01:19.396Z,87.60
2017-05-17T06:03:46.429Z,87.20
2017-05-17T06:06:13.439Z,85.30
2017-05-17T06:08:40.774Z,84.90
2017-05-17T06:11:07.799Z,85.90
2017-05-17T06:13:34.833Z,85.30
2017-05-17T06:16:02.226Z,85.70
2017-05-17T06:18:29.256Z,86.30
2017-05-17T06:20:56.290Z,86.10
2017-05-17T06:23:23.672Z,85.00
2017-05-17T06:25:50.721Z,84.90
2017-05-17T06:28:17.746Z,85.10
2017-05-17T06:30:45.152Z,85.30
2017-05-17T06:33:12.173Z,85.60
2017-05-17T06:35:46.387Z,86.80
2017-05-17T06:38:13.397Z,86.10
2017-05-17T06:40:40.451Z,85.50
2017-05-17T06:43:07.972Z,86.90
2017-05-17T06:45:35.036Z,87.70
2017-05-17T06:48:02.117Z,86.50
2017-05-17T06:50:29.516Z,85.50
2017-05-17T06:52:57.314Z,85.20
2017-05-17T06:55:24.330Z,84.00
2017-05-17T06:57:52.390Z,84.30
2017-05-17T07:00:20.165Z,84.60
2017-05-17T07:02:47.213Z,84.00
2017-05-17T07:05:14.728Z,84.40
2017-05-17T07:07:41.782Z,85.30
2017-05-17T07:10:08.819Z,83.80
2017-05-17T07:12:36.286Z,82.20
2017-05-17T07:15:03.442Z,83.10
2017-05-17T07:17:30.536Z,80.90
2017-05-17T07:19:57.927Z,81.70
2017-05-17T07:22:24.956Z,82.30
2017-05-17T07:24:52.776Z,81.40
2017-05-17T07:27:20.904Z,83.10
2017-05-17T07:29:47.918Z,82.90
2017-05-17T07:32:14.956Z,81.70
2017-05-17T07:34:42.364Z,82.90
2017-05-17T07:37:10.133Z,82.60
2017-05-17T07:39:37.913Z,83.80
2017-05-17T07:42:05.348Z,84.20
2017-05-17T07:44:32.368Z,83.10
2017-05-17T07:46:59.436Z,84.70
2017-05-17T07:49:26.791Z,85.00
2017-05-17T07:51:54.564Z,84.30
2017-05-17T07:54:22.372Z,83.90
2017-05-17T07:56:49.740Z,83.70
2017-05-17T07:59:16.736Z,84.40
2017-05-17T08:01:44.540Z,83.80
2017-05-17T08:04:11.912Z,83.60
2017-05-17T08:06:38.956Z,82.70
2017-05-17T08:09:06.004Z,83.70
2017-05-17T08:11:33.386Z,83.50
2017-05-17T08:14:00.482Z,84.10
2017-05-17T08:16:27.488Z,84.10
2017-05-17T08:18:54.904Z,84.70
2017-05-17T08:21:21.947Z,82.60
2017-05-17T08:23:48.980Z,80.80
2017-05-17T08:26:16.463Z,79.50
2017-05-17T08:28:43.492Z,78.90
2017-05-17T08:31:10.554Z,78.70
2017-05-17T08:33:38.612Z,79.60
2017-05-17T08:36:05.661Z,80.90
2017-05-17T08:38:32.684Z,82.80
2017-05-17T08:40:59.999Z,82.30
2017-05-17T08:43:27.045Z,83.30
2017-05-17T08:45:54.106Z,82.20
2017-05-17T08:48:21.440Z,78.60
2017-05-17T08:50:48.476Z,76.70
2017-05-17T08:53:15.530Z,74.80
2017-05-17T08:55:42.888Z,76.20
2017-05-17T08:58:09.902Z,75.50
2017-05-17T09:00:36.904Z,74.40
2017-05-17T09:03:04.256Z,74.30
2017-05-17T09:05:31.297Z,73.70
2017-05-17T09:07:58.289Z,74.50
2017-05-17T09:10:25.636Z,72.90
2017-05-17T09:12:53.441Z,70.10
2017-05-17T09:15:20.498Z,69.60
2017-05-17T09:17:47.884Z,70.10
2017-05-17T09:20:14.902Z,71.20
2017-05-17T09:22:41.928Z,70.80
2017-05-17T09:25:09.330Z,69.80
2017-05-17T09:27:37.128Z,68.40
2017-05-17T09:30:04.170Z,69.50
2017-05-17T09:32:32.424Z,70.50
2017-05-17T09:35:00.203Z,70.20
2017-05-17T09:37:27.253Z,68.50
2017-05-17T09:39:54.637Z,69.30
2017-05-17T09:42:21.683Z,70.20
2017-05-17T09:44:48.720Z,68.60
2017-05-17T09:47:16.112Z,68.50
2017-05-17T09:49:43.133Z,66.40
2017-05-17T09:52:10.158Z,67.20
2017-05-17T09:54:37.483Z,68.80
2017-05-17T09:57:05.245Z,66.60
2017-05-17T09:59:32.253Z,64.70
2017-05-17T10:01:59.632Z,64.70
2017-05-17T10:04:27.392Z,65.00
2017-05-17T10:06:54.449Z,63.90
2017-05-17T10:09:22.529Z,65.00
2017-05-17T10:11:49.583Z,65.00
2017-05-17T10:14:16.628Z,64.90
2017-05-17T10:16:43.941Z,66.00
2017-05-17T10:19:10.974Z,65.60
2017-05-17T10:21:38.008Z,64.30
2017-05-17T10:24:12.337Z,63.60
2017-05-17T10:26:39.385Z,63.10
2017-05-17T10:29:06.428Z,63.50
2017-05-17T10:31:33.785Z,66.60
2017-05-17T10:34:00.844Z,65.30
2017-05-17T10:36:27.877Z,62.30
2017-05-17T10:38:55.348Z,63.40
2017-05-17T10:41:22.398Z,64.00
2017-05-17T10:43:49.400Z,64.30
2017-05-17T10:46:16.769Z,64.60
2017-05-17T10:48:43.822Z,64.80
2017-05-17T10:51:10.841Z,63.60
2017-05-17T10:53:38.229Z,62.90
2017-05-17T10:56:06.095Z,63.20
2017-05-17T10:58:33.890Z,62.00
2017-05-17T11:01:01.297Z,62.50
2017-05-17T11:03:28.329Z,59.20
2017-05-17T11:05:55.368Z,61.00
2017-05-17T11:08:22.686Z,60.80
2017-05-17T11:10:49.692Z,59.10
2017-05-17T11:13:17.460Z,58.20
2017-05-17T11:15:45.013Z,58.50
2017-05-17T11:18:12.021Z,57.60
2017-05-17T11:20:39.031Z,59.40
2017-05-17T11:23:13.432Z,56.70
2017-05-17T11:25:40.484Z,57.20
2017-05-17T11:28:08.240Z,55.60
2017-05-17T11:30:36.396Z,56.40
2017-05-17T11:33:03.436Z,55.50
2017-05-17T11:35:30.459Z,54.30
2017-05-17T11:37:58.498Z,55.00
2017-05-17T11:40:25.528Z,53.60
2017-05-17T11:42:52.650Z,54.30
2017-05-17T11:45:20.002Z,53.90
2017-05-17T11:47:47.077Z,54.80
2017-05-17T11:50:14.105Z,53.80
2017-05-17T11:52:42.275Z,53.30
2017-05-17T11:55:09.331Z,52.90
2017-05-17T11:57:37.089Z,51.80
2017-05-17T12:00:04.525Z,52.70
2017-05-17T12:02:31.565Z,52.90
2017-05-17T12:04:58.589Z,53.00
2017-05-17T12:07:25.970Z,52.60
2017-05-17T12:09:53.258Z,52.90
2017-05-17T12:12:20.933Z,52.90
2017-05-17T12:14:48.324Z,51.00
2017-05-17T12:17:16.133Z,51.70
2017-05-17T12:19:43.145Z,52.40
2017-05-17T12:22:11.405Z,52.40
2017-05-17T12:24:38.443Z,48.30
2017-05-17T12:27:05.471Z,50.40
2017-05-17T12:29:32.955Z,52.00
2017-05-17T12:32:00.748Z,51.30
2017-05-17T12:34:27.769Z,51.80
2017-05-17T12:36:55.221Z,53.60
2017-05-17T12:39:23.004Z,52.20
2017-05-17T12:41:50.888Z,49.70
2017-05-17T12:44:18.314Z,51.40
2017-05-17T12:46:45.352Z,51.10
2017-05-17T12:49:13.142Z,52.50
2017-05-17T12:51:40.540Z,52.90
2017-05-17T12:54:07.593Z,50.00
2017-05-17T12:56:34.631Z,51.00
2017-05-17T12:59:02.117Z,51.90
2017-05-17T13:01:29.153Z,49.70
2017-05-17T13:03:56.934Z,51.50
2017-05-17T13:06:25.064Z,49.10
2017-05-17T13:08:52.076Z,49.50
2017-05-17T13:11:19.125Z,49.30
2017-05-17T13:13:46.518Z,49.30
2017-05-17T13:16:13.565Z,48.70
2017-05-17T13:18:40.605Z,48.40
2017-05-17T13:21:08.170Z,48.60
2017-05-17T13:23:35.920Z,48.40
2017-05-17T13:26:03.746Z,46.60
2017-05-17T13:28:31.153Z,45.30
2017-05-17T13:30:58.174Z,47.70
2017-05-17T13:33:25.223Z,46.90
2017-05-17T13:35:52.586Z,46.50
2017-05-17T13:38:19.580Z,46.70
2017-05-17T13:40:46.619Z,47.30
2017-05-17T13:43:14.049Z,45.50
2017-05-17T13:45:41.811Z,45.70
2017-05-17T13:48:09.575Z,44.60
2017-05-17T13:50:36.921Z,42.80
2017-05-17T13:53:04.690Z,45.50
2017-05-17T13:55:31.742Z,44.10
2017-05-17T13:57:59.183Z,44.00
2017-05-17T14:00:26.939Z,44.30
2017-05-17T14:02:54.729Z,43.20
2017-05-17T14:05:22.367Z,41.40
2017-05-17T14:07:49.447Z,41.10
2017-05-17T14:10:16.554Z,42.50
2017-05-17T14:12:44.700Z,41.20
2017-05-17T14:15:11.716Z,41.10
2017-05-17T14:17:38.768Z,39.80
2017-05-17T14:20:06.147Z,40.80
2017-05-17T14:22:33.171Z,42.40
2017-05-17T14:25:00.236Z,41.70
2017-05-17T14:27:29.974Z,39.50
2017-05-17T14:29:57.044Z,37.40
2017-05-17T14:32:24.044Z,40.10
2017-05-17T14:34:51.520Z,39.00
2017-05-17T14:37:19.319Z,39.00
2017-05-17T14:39:46.314Z,39.30
2017-05-17T14:42:13.775Z,38.30
2017-05-17T14:44:41.548Z,35.80
2017-05-17T14:47:08.574Z,37.10
2017-05-17T14:49:35.945Z,37.00
2017-05-17T14:52:03.677Z,36.10
2017-05-17T14:54:30.689Z,34.00
2017-05-17T14:56:58.071Z,33.70
2017-05-17T14:59:25.154Z,31.90
2017-05-17T15:01:52.173Z,31.60
2017-05-17T15:04:19.528Z,30.40
2017-05-17T15:06:47.305Z,29.20
2017-05-17T15:09:15.108Z,28.10
2017-05-17T15:11:42.522Z,26.90
2017-05-17T15:14:09.567Z,26.30
2017-05-17T15:16:37.351Z,24.90
2017-05-17T15:19:04.717Z,25.00
2017-05-17T15:21:31.777Z,24.20
2017-05-17T15:23:58.816Z,24.50
2017-05-17T15:26:26.212Z,24.40
2017-05-17T15:28:53.259Z,24.70
2017-05-17T15:31:21.219Z,25.80
2017-05-17T15:33:48.585Z,24.70
2017-05-17T15:36:15.604Z,24.10
2017-05-17T15:38:42.636Z,23.90
2017-05-17T15:41:10.025Z,23.60
2017-05-17T15:43:37.075Z,22.90
2017-05-17T15:46:04.156Z,22.30
2017-05-17T15:48:31.603Z,22.30
2017-05-17T15:50:58.660Z,22.40
2017-05-17T15:53:25.705Z,22.30
2017-05-17T15:55:56.492Z,22.10
2017-05-17T15:58:23.697Z,21.50
2017-05-17T16:00:50.729Z,21.50
2017-05-17T16:03:20.206Z,20.30
2017-05-17T16:05:50.941Z,20.20
2017-05-17T16:08:17.969Z,21.30
2017-05-17T16:10:45.297Z,20.90
2017-05-17T16:13:13.090Z,21.30
2017-05-17T16:15:40.134Z,20.90
2017-05-17T16:18:08.310Z,21.60
2017-05-17T16:20:35.329Z,21.60
2017-05-17T16:23:03.123Z,20.80
2017-05-17T16:25:30.431Z,20.60
2017-05-17T16:27:57.445Z,20.40
2017-05-17T16:30:24.489Z,21.20
2017-05-17T16:32:51.878Z,19.90
2017-05-17T16:35:18.939Z,20.00
2017-05-17T16:37:45.968Z,20.30
2017-05-17T16:40:13.364Z,21.40
2017-05-17T16:42:40.800Z,20.50
2017-05-17T16:45:08.558Z,20.80
2017-05-17T16:47:36.709Z,20.00
2017-05-17T16:50:03.806Z,21.80
2017-05-17T16:52:30.828Z,20.50
2017-05-17T16:54:58.259Z,21.60
2017-05-17T16:57:25.323Z,22.00
2017-05-17T16:59:52.728Z,20.50
2017-05-17T17:02:20.055Z,20.70
2017-05-17T17:04:47.098Z,21.20
2017-05-17T17:07:14.092Z,19.90
2017-05-17T17:09:41.464Z,21.10
2017-05-17T17:12:09.217Z,21.70
2017-05-17T17:14:36.261Z,22.10
2017-05-17T17:17:03.723Z,22.80
2017-05-17T17:19:31.478Z,22.20
2017-05-17T17:21:59.444Z,22.50
2017-05-17T17:24:27.604Z,21.10
2017-05-17T17:26:54.732Z,21.60
2017-05-17T17:29:21.793Z,21.70
2017-05-17T17:31:49.149Z,21.20
2017-05-17T17:34:16.198Z,21.70
2017-05-17T17:36:44.020Z,21.00
2017-05-17T17:39:11.438Z,21.30
2017-05-17T17:41:38.459Z,21.70
2017-05-17T17:44:05.554Z,23.00
2017-05-17T17:46:39.109Z,22.20
2017-05-17T17:49:06.891Z,23.40
2017-05-17T17:51:34.200Z,25.10
2017-05-17T17:54:02.097Z,25.50
2017-05-17T17:56:29.866Z,26.30
2017-05-17T17:58:56.901Z,25.50
2017-05-17T18:01:25.060Z,26.10
2017-05-17T18:03:52.112Z,26.50
2017-05-17T18:06:19.880Z,28.00
2017-05-17T18:08:48.052Z,27.80
2017-05-17T18:11:15.128Z,27.60
2017-05-17T18:13:42.171Z,28.40
2017-05-17T18:16:09.597Z,28.50
2017-05-17T18:18:36.693Z,29.70
2017-05-17T18:21:03.769Z,32.00
2017-05-17T18:23:31.237Z,33.00
2017-05-17T18:25:59.103Z,35.40
2017-05-17T18:28:26.900Z,35.40
2017-05-17T18:30:54.329Z,36.70
2017-05-17T18:33:22.142Z,36.20
2017-05-17T18:35:49.195Z,37.20
2017-05-17T18:38:16.783Z,38.60
2017-05-17T18:40:44.588Z,38.20
2017-05-17T18:43:11.625Z,40.30
2017-05-17T18:45:38.947Z,40.30
2017-05-17T18:48:06.024Z,40.30
2017-05-17T18:50:33.054Z,41.20
2017-05-17T18:53:00.703Z,41.70
2017-05-17T18:55:27.751Z,42.50
2017-05-17T18:57:54.813Z,43.70
2017-05-17T19:00:22.249Z,44.00
2017-05-17T19:02:49.304Z,44.90
2017-05-17T19:05:16.350Z,46.00
2017-05-17T19:07:43.765Z,46.60
2017-05-17T19:10:10.825Z,47.60
2017-05-17T19:12:38.625Z,48.30
2017-05-17T19:15:06.056Z,48.90
2017-05-17T19:17:33.113Z,50.40
2017-05-17T19:20:00.173Z,50.00
2017-05-17T19:22:27.577Z,51.20
2017-05-17T19:24:54.601Z,51.90
2017-05-17T19:27:21.680Z,52.30
2017-05-17T19:29:49.048Z,52.50
2017-05-17T19:32:16.819Z,52.50
2017-05-17T19:34:43.838Z,53.20
2017-05-17T19:37:11.132Z,55.10
2017-05-17T19:39:38.160Z,54.70
2017-05-17T19:42:05.957Z,54.50
2017-05-17T19:44:33.369Z,55.20
2017-05-17T19:47:01.235Z,54.90
2017-05-17T19:49:28.277Z,55.20
2017-05-17T19:51:55.729Z,54.20
2017-05-17T19:54:22.749Z,56.20
2017-05-17T19:56:49.820Z,54.50
2017-05-17T19:59:17.121Z,55.50
2017-05-17T20:01:44.877Z,56.20
2017-05-17T20:04:12.630Z,54.90
2017-05-17T20:06:39.928Z,56.00
2017-05-17T20:09:06.947Z,55.20
2017-05-17T20:11:35.396Z,57.40
2017-05-17T20:14:02.737Z,56.60
2017-05-17T20:16:29.748Z,56.90
2017-05-17T20:18:56.760Z,57.90
2017-05-17T20:21:24.866Z,58.00
2017-05-17T20:23:52.604Z,57.50
2017-05-17T20:26:19.611Z,58.30
2017-05-17T20:28:47.097Z,58.20
2017-05-17T20:31:14.850Z,58.40
2017-05-17T20:33:41.900Z,58.00
2017-05-17T20:36:09.245Z,58.70
2017-05-17T20:38:36.309Z,57.70
2017-05-17T20:41:03.324Z,58.00
2017-05-17T20:43:30.700Z,57.70
2017-05-17T20:45:57.763Z,57.70
2017-05-17T20:48:24.776Z,59.00
2017-05-17T20:50:52.183Z,57.90
2017-05-17T20:53:20.046Z,58.50
2017-05-17T20:55:47.819Z,57.70
2017-05-17T20:58:15.972Z,58.70
2017-05-17T21:00:43.020Z,59.00
2017-05-17T21:03:10.066Z,59.60
2017-05-17T21:05:37.352Z,59.10
2017-05-17T21:08:04.576Z,59.60
2017-05-17T21:10:31.580Z,59.60
2017-05-17T21:12:58.971Z,60.00
2017-05-17T21:15:26.030Z,60.20
2017-05-17T21:17:53.788Z,59.70
2017-05-17T21:20:21.249Z,59.30
2017-05-17T21:22:48.270Z,59.50
2017-05-17T21:25:15.254Z,60.10
2017-05-17T21:27:42.716Z,59.80
2017-05-17T21:30:10.452Z,59.30
2017-05-17T21:32:37.469Z,59.40
2017-05-17T21:35:04.865Z,61.00
2017-05-17T21:37:31.888Z,60.00
2017-05-17T21:39:58.905Z,60.00
2017-05-17T21:42:26.305Z,58.50
2017-05-17T21:44:53.311Z,59.80
2017-05-17T21:47:20.345Z,60.00
2017-05-17T21:49:47.773Z,60.50
2017-05-17T21:52:15.549Z,60.70
2017-05-17T21:54:43.402Z,61.60
2017-05-17T21:57:11.065Z,60.30
2017-05-17T21:59:38.028Z,60.50
2017-05-17T22:02:05.780Z,60.80
2017-05-17T22:04:33.117Z,60.10
2017-05-17T22:07:00.084Z,59.90
2017-05-17T22:09:27.065Z,59.30
2017-05-17T22:11:55.400Z,59.40
2017-05-17T22:14:22.424Z,59.60
2017-05-17T22:16:49.454Z,61.40
2017-05-17T22:19:16.802Z,59.50
2017-05-17T22:21:43.817Z,58.00
2017-05-17T22:24:12.096Z,59.70
2017-05-17T22:26:40.249Z,59.60
2017-05-17T22:29:07.266Z,59.50
2017-05-17T22:31:34.389Z,59.00
2017-05-17T22:34:01.807Z,59.60
2017-05-17T22:36:28.834Z,60.20
2017-05-17T22:38:55.852Z,59.10
2017-05-17T22:41:23.233Z,59.90
2017-05-17T22:43:50.244Z,59.60
2017-05-17T22:46:17.237Z,60.90
2017-05-17T22:48:44.680Z,59.90
2017-05-17T22:51:11.716Z,60.10
2017-05-17T22:53:38.721Z,61.30
2017-05-17T22:56:06.856Z,60.60
2017-05-17T22:58:33.873Z,60.80
2017-05-17T23:01:00.881Z,60.00
2017-05-17T23:03:28.940Z,60.60
2017-05-17T23:05:55.940Z,60.20
2017-05-17T23:08:22.941Z,60.70
2017-05-17T23:10:51.072Z,61.90
2017-05-17T23:13:18.073Z,62.00
2017-05-17T23:15:45.836Z,62.30
2017-05-17T23:18:13.212Z,62.70
2017-05-17T23:20:40.216Z,62.20
2017-05-17T23:23:07.221Z,62.40
2017-05-17T23:25:34.730Z,63.30
2017-05-17T23:28:01.733Z,63.20
2017-05-17T23:30:28.754Z,64.00
2017-05-17T23:32:56.155Z,64.10
2017-05-17T23:35:23.187Z,63.40
2017-05-17T23:37:50.176Z,62.50
2017-05-17T23:40:17.522Z,62.70
2017-05-17T23:42:44.546Z,61.90
2017-05-17T23:45:11.559Z,62.00
2017-05-17T23:47:38.880Z,63.50
2017-05-17T23:50:07.430Z,63.20
2017-05-17T23:52:34.463Z,62.70
2017-05-17T23:55:01.856Z,60.90
2017-05-17T23:57:28.854Z,62.60
2017-05-17T23:59:55.859Z,63.20
